Flight Track Log - Related Links

Times and Time Zones

All times are in EDT time to prevent confusion due to time zone crossing. See the TMC875 flight status page for this flight to view local times or setup timezone preferences in your user account.

Time Position Orientation Groundspeed Altitude Reporting Facility
EDT Latitude Longitude Course Direction KTS MPH feet Rate Location/Type
Sun 11:22:51 AM 27.1378 -80.1431 13° North 204 235 4,100  Level Miami Center
Sun 11:23:51 AM 27.0931 -80.1861 221° Southwest 176 203 5,000 1,400 Climbing Miami Center
Sun 11:24:51 AM 27.1308 -80.2642 299° West 183 211 6,900 2,050 Climbing Miami Center
Sun 11:25:51 AM 27.1989 -80.2967 337° Northwest 205 236 9,100 1,050 Climbing Miami Center
Sun 11:26:51 AM 27.2714 -80.3292 338° Northwest 245 282 9,000 1,300 Descending Miami Center
Sun 11:27:51 AM 27.3397 -80.3522 343° North 279 321 11,700 2,650 Climbing Miami Center
Sun 11:28:00 AM 27.4146 -80.5547 13° North  Level FlightAware Approximate
Sun 11:28:51 AM 27.4161 -80.3825 341° North 285 328 14,300  Level Miami Center
Sun 11:29:51 AM 27.5053 -80.4064 347° North 290 334 17,300 2,550 Climbing Miami Center
Sun 11:30:51 AM 27.5811 -80.3853 14° North 296 341 19,400 2,450 Climbing Miami Center
Sun 11:31:51 AM 27.6672 -80.3575 16° North 301 346 22,200 2,450 Climbing Miami Center
Sun 11:32:51 AM 27.7578 -80.3250 18° North 318 366 24,300 2,200 Climbing Miami Center
Sun 11:33:51 AM 27.8653 -80.2908 16° North 346 398 26,600 1,950 Climbing Miami Center
Sun 11:34:51 AM 27.9622 -80.2514 20° North 361 415 28,200 1,400 Climbing Miami Center
Sun 11:35:51 AM 28.0650 -80.2286 11° North 372 428 29,400 1,450 Climbing Miami Center
Sun 11:36:51 AM 28.1628 -80.2386 355° North 378 435 31,100 1,900 Climbing Miami Center
Sun 11:37:51 AM 28.2817 -80.2444 358° North 384 442 33,200 1,900 Climbing Miami Center
Sun 11:38:51 AM 28.3836 -80.2547 355° North 379 436 34,900 900 Climbing Miami Center
Sun 11:39:51 AM 28.4903 -80.2461 North 374 430 35,000 250 Climbing Miami Center
Sun 11:40:51 AM 28.5833 -80.1967 25° Northeast 387 445 35,400 700 Climbing Miami Center
Sun 11:41:51 AM 28.6956 -80.1269 29° Northeast 408 470 36,400 1,000 Climbing Miami Center
Sun 11:42:51 AM 28.7969 -80.0611 30° Northeast 408 470 37,400 1,000 Climbing Miami Center
Sun 11:43:51 AM 28.8944 -80.0000 29° Northeast 408 470 38,400 800 Climbing Miami Center
Sun 11:44:51 AM 28.9917 -79.9364 30° Northeast 402 463 39,000 300 Climbing Miami Center
Sun 11:45:51 AM 29.0931 -79.8775 27° Northeast 402 463 39,000  Level Miami Center
Sun 11:46:51 AM 29.1928 -79.8064 32° Northeast 408 470 39,000  Level Miami Center
Sun 11:47:51 AM 29.2919 -79.7400 30° Northeast 413 475 39,000  Level Miami Center
Sun 11:48:51 AM 29.3975 -79.6808 26° Northeast 413 475 39,000 150 Level Miami Center
Sun 11:49:51 AM 29.4969 -79.6119 31° Northeast 413 475 39,300 530 Climbing Miami Center
Sun 11:51:52 AM 29.6947 -79.4761 31° Northeast 406 467 40,600 564 Climbing Jacksonville Center
Sun 11:52:52 AM 29.7886 -79.4011 35° Northeast 407 468 41,000 200 Climbing Jacksonville Center
Sun 11:53:52 AM 29.9000 -79.3492 22° Northeast 414 476 41,000  Level Jacksonville Center
Sun 11:54:52 AM 29.9981 -79.2761 33° Northeast 416 479 41,000  Level Jacksonville Center
Sun 11:55:52 AM 30.0983 -79.2050 32° Northeast 421 484 41,000  Level Jacksonville Center
Sun 11:56:52 AM 30.2031 -79.1411 28° Northeast 413 475 41,000  Level Jacksonville Center
Sun 11:57:52 AM 30.2911 -79.0822 30° Northeast 408 470 41,000  Level Jacksonville Center
Sun 11:58:52 AM 30.3958 -79.0250 25° Northeast 413 475 41,000  Level Jacksonville Center
Sun 11:59:52 AM 30.5092 -78.9772 20° North 418 481 41,000  Level Jacksonville Center
Sun 12:00:52 PM 30.6183 -78.9317 20° North 411 473 41,000  Level Jacksonville Center
Sun 12:01:52 PM 30.7275 -78.8836 21° North 405 466 41,000  Level Jacksonville Center
Sun 12:02:52 PM 30.8389 -78.8403 18° North 411 473 41,000 -50 Level Jacksonville Center
Sun 12:03:52 PM 30.9436 -78.7919 22° Northeast 404 465 40,900  Descending Jacksonville Center
Sun 12:04:52 PM 31.0528 -78.7461 20° North 404 465 41,000 50 Climbing Jacksonville Center
Sun 12:05:52 PM 31.1558 -78.7075 18° North 404 465 41,000  Level Jacksonville Center
Sun 12:06:52 PM 31.2650 -78.6564 22° Northeast 404 465 41,000  Level Jacksonville Center
Sun 12:07:52 PM 31.3739 -78.6078 21° North 404 465 41,000  Level Jacksonville Center
Sun 12:08:52 PM 31.4808 -78.5614 20° North 404 465 41,000  Level Jacksonville Center
Sun 12:09:52 PM 31.5858 -78.5153 21° North 404 465 41,000  Level Jacksonville Center
Sun 12:10:52 PM 31.6947 -78.4708 19° North 404 465 41,000  Level Jacksonville Center
Sun 12:11:52 PM 31.7994 -78.4219 22° Northeast 404 465 41,000  Level Jacksonville Center
Sun 12:12:52 PM 31.9064 -78.3753 20° North 404 465 41,000  Level Jacksonville Center
Sun 12:13:52 PM 32.0092 -78.3308 20° North 398 458 41,000  Level Jacksonville Center
Sun 12:14:52 PM 32.1139 -78.2839 21° North 398 458 41,000  Level Jacksonville Center
Sun 12:15:52 PM 32.2167 -78.2397 20° North 393 452 41,000  Level Jacksonville Center
Sun 12:16:52 PM 32.3211 -78.1850 24° Northeast 398 458 41,000  Level Jacksonville Center
Sun 12:17:52 PM 32.4258 -78.1403 20° North 398 458 41,000  Level Jacksonville Center
Sun 12:18:52 PM 32.5286 -78.0981 19° North 398 458 41,000  Level Jacksonville Center
Sun 12:19:52 PM 32.6311 -78.0506 21° North 398 458 41,000  Level Jacksonville Center
Sun 12:20:52 PM 32.7358 -78.0056 20° North 398 458 41,000 -36 Level Jacksonville Center
Sun 12:22:37 PM 32.9289 -77.9217 20° North 408 470 40,900  Descending Washington Center
Sun 12:23:38 PM 33.0319 -77.8725 22° Northeast 403 464 41,000 50 Climbing Washington Center
Sun 12:24:36 PM 33.1350 -77.8283 20° North 397 457 41,000  Level Washington Center
Sun 12:25:36 PM 33.2403 -77.7814 20° North 397 457 41,000  Level Washington Center
Sun 12:26:38 PM 33.3433 -77.7367 20° North 392 451 41,000  Level Washington Center
Sun 12:27:38 PM 33.4525 -77.6850 22° Northeast 397 457 41,000  Level Washington Center
Sun 12:28:36 PM 33.5556 -77.6375 21° North 397 457 41,000  Level Washington Center
Sun 12:29:37 PM 33.6628 -77.5878 21° North 397 457 41,000  Level Washington Center
Sun 12:30:36 PM 33.7700 -77.5381 21° North 402 463 41,000  Level Washington Center
Sun 12:31:36 PM 33.8772 -77.4903 20° North 407 468 41,000  Level Washington Center
Sun 12:32:36 PM 33.9761 -77.4450 21° North 413 475 41,000  Level Washington Center
Sun 12:33:37 PM 34.0831 -77.3972 20° North 413 475 41,000  Level Washington Center
Sun 12:34:38 PM 34.1922 -77.3469 21° North 413 475 41,000  Level Washington Center
Sun 12:35:36 PM 34.3017 -77.2967 21° North 413 475 41,000  Level Washington Center
Sun 12:36:37 PM 34.4086 -77.2508 19° North 413 475 41,000  Level Washington Center
Sun 12:37:37 PM 34.5178 -77.1978 22° Northeast 413 475 41,000  Level Washington Center
Sun 12:38:37 PM 34.6269 -77.1494 20° North 413 475 41,000  Level Washington Center
Sun 12:39:36 PM 34.7319 -77.1008 21° North 413 475 41,000  Level Washington Center
Sun 12:40:36 PM 34.8369 -77.0497 22° Northeast 413 475 41,000  Level Washington Center
Sun 12:41:38 PM 34.9417 -77.0008 21° North 408 470 41,000  Level Washington Center
Sun 12:42:38 PM 35.0447 -76.9494 22° Northeast 408 470 41,000  Level Washington Center
Sun 12:43:38 PM 35.1517 -76.8978 22° Northeast 408 470 41,000  Level Washington Center
Sun 12:44:36 PM 35.2564 -76.8511 20° North 402 463 41,000  Level Washington Center
Sun 12:45:37 PM 35.3614 -76.7992 22° Northeast 397 457 41,000  Level Washington Center
Sun 12:46:36 PM 35.4619 -76.7497 22° Northeast 397 457 41,000  Level Washington Center
Sun 12:47:36 PM 35.5667 -76.6978 22° Northeast 397 457 41,000  Level Washington Center
Sun 12:48:37 PM 35.6714 -76.6506 20° North 397 457 41,000  Level Washington Center
Sun 12:49:38 PM 35.7761 -76.6008 21° North 397 457 41,000 -151 Level Washington Center
Sun 12:50:36 PM 35.8831 -76.5483 22° Northeast 397 457 40,700 -807 Descending Washington Center
Sun 12:51:37 PM 35.9878 -76.4956 22° Northeast 397 457 39,400 -1,388 Descending Washington Center
Sun 12:52:37 PM 36.0944 -76.4453 21° North 397 457 37,900 -1,488 Descending Washington Center
Sun 12:53:38 PM 36.1972 -76.3975 21° North 397 457 36,400 -1,438 Descending Washington Center
Sun 12:54:38 PM 36.3058 -76.3444 21° North 397 457 35,000 -712 Descending Washington Center
Sun 12:55:36 PM 36.4211 -76.2889 21° North 415 478 35,000  Level Washington Center
Sun 12:56:36 PM 36.5319 -76.2331 22° Northeast 427 491 35,000  Level Washington Center
Sun 12:57:37 PM 36.6428 -76.1794 21° North 427 491 35,000  Level Washington Center
Sun 12:58:37 PM 36.7558 -76.1208 23° Northeast 433 498 35,000  Level Washington Center
Sun 12:59:38 PM 36.8664 -76.0644 22° Northeast 433 498 35,000  Level Washington Center
Sun 01:00:38 PM 36.9961 -76.0081 19° North 441 507 35,000  Level Washington Center
Sun 01:01:36 PM 37.1025 -75.9514 23° Northeast 441 507 35,000  Level Washington Center
Sun 01:02:36 PM 37.2156 -75.8944 22° Northeast 431 496 35,000  Level Washington Center
Sun 01:03:38 PM 37.3281 -75.8400 21° North 431 496 35,000  Level Washington Center
Sun 01:04:38 PM 37.4389 -75.7828 22° Northeast 431 496 35,000  Level Washington Center
Sun 01:05:36 PM 37.5517 -75.7281 21° North 431 496 35,000  Level Washington Center
Sun 01:06:38 PM 37.6622 -75.6706 22° Northeast 431 496 35,000  Level Washington Center
Sun 01:07:38 PM 37.7728 -75.6181 21° North 431 496 35,000  Level Washington Center
Sun 01:08:36 PM 37.8853 -75.5575 23° Northeast 431 496 35,000  Level Washington Center
Sun 01:09:36 PM 37.9958 -75.5022 22° Northeast 431 496 35,000  Level Washington Center
Sun 01:10:37 PM 38.1064 -75.4361 25° Northeast 431 496 35,000  Level Washington Center
Sun 01:11:38 PM 38.2147 -75.3697 26° Northeast 431 496 35,000  Level Washington Center
Sun 01:12:38 PM 38.3103 -75.3033 29° Northeast 431 496 35,000  Level Washington Center
Sun 01:13:36 PM 38.4186 -75.2367 26° Northeast 431 496 35,000  Level Washington Center
Sun 01:14:37 PM 38.5269 -75.1669 27° Northeast 426 490 35,000  Level Washington Center
Sun 01:15:38 PM 38.6350 -75.0972 27° Northeast 426 490 35,000  Level Washington Center
Sun 01:16:38 PM 38.7450 -75.0275 26° Northeast 426 490 35,000 -51 Level Washington Center
Sun 01:17:36 PM 38.8531 -74.9600 26° Northeast 426 490 34,900  Descending Washington Center
Sun 01:18:37 PM 38.9592 -74.8950 25° Northeast 426 490 35,000 -492 Climbing Washington Center
Sun 01:19:38 PM 39.0631 -74.8244 28° Northeast 426 490 33,900 -1,509 Descending Washington Center
Sun 01:21:28 PM 39.2469 -74.6528 36° Northeast 431 496 30,700 -1,825 Descending New York Center
Sun 01:22:29 PM 39.3531 -74.5378 40° Northeast 436 502 28,700 -2,033 Descending New York Center
Sun 01:23:29 PM 39.4500 -74.4381 38° Northeast 441 507 26,600 -2,050 Descending New York Center
Sun 01:24:29 PM 39.5428 -74.3350 41° Northeast 436 502 24,600 -1,438 Descending New York Center
Sun 01:25:30 PM 39.6397 -74.2350 38° Northeast 436 502 23,700 -787 Descending New York Center
Sun 01:26:31 PM 39.7256 -74.1419 40° Northeast 426 490 23,000 -356 Descending New York Center
Sun 01:27:28 PM 39.8181 -74.0464 38° Northeast 421 484 23,000  Level New York Center
Sun 01:28:28 PM 39.9081 -73.9533 38° Northeast 415 478 23,000  Level New York Center
Sun 01:29:29 PM 39.9964 -73.8544 41° Northeast 415 478 23,000 -148 Level New York Center
Sun 01:30:30 PM 40.0861 -73.7633 38° Northeast 409 471 22,700 -1,178 Descending New York Center
Sun 01:32:12 PM 40.2186 -73.6142 41° Northeast 382 440 19,800 -1,741 Descending Boston Center
Sun 01:33:12 PM 40.3114 -73.5231 37° Northeast 377 434 18,000 -1,400 Descending Boston Center
Sun 01:34:12 PM 40.4036 -73.4511 31° Northeast 372 428 17,000 -500 Descending Boston Center
Sun 01:35:12 PM 40.4997 -73.4144 16° North 358 412 17,000 -417 Level Boston Center
Sun 01:36:36 PM 40.6147 -73.3722 16° North 358 412 16,000 -833 Descending Boston Center
Sun 01:37:36 PM 40.7089 -73.3381 15° North 352 405 15,000 -600 Descending Boston Center
Sun 01:38:36 PM 40.8000 -73.2667 31° Northeast 303 349 14,800 -952 Descending New York TRACON
Sun 01:39:42 PM 40.8500 -73.1667 57° Northeast 319 367 13,000 -1,714 Descending New York TRACON
Sun 01:40:42 PM 40.9000 -73.0833 52° Northeast 306 352 11,200 -2,800 Descending New York TRACON
Sun 01:41:42 PM 40.9333 -73.0000 62° Northeast 276 318 7,400 -1,500 Descending New York TRACON
Sun 01:42:42 PM 40.9833 -72.9167 52° Northeast 264 304 8,200 -250 Climbing New York TRACON
Sun 01:43:42 PM 41.0500 -72.9167 360° North 273 314 6,900 -1,429 Descending New York TRACON
Sun 01:44:48 PM 41.1000 -73.0000 309° West 261 300 5,200 -1,000 Descending New York TRACON
Sun 01:45:42 PM 41.1333 -73.0667 304° West 254 292 4,900 -105 Descending New York TRACON
Sun 01:46:42 PM 41.1667 -73.1667 294° West 253 291 5,000 -250 Climbing New York TRACON
Sun 01:47:42 PM 41.1667 -73.2500 270° West 241 277 4,400 -500 Descending New York TRACON
Sun 01:48:42 PM 41.1833 -73.3333 285° West 243 280 4,000 -200 Descending New York TRACON
Sun 01:49:42 PM 41.1833 -73.4333 270° West 248 285 4,000 -250 Level New York TRACON
Sun 01:50:42 PM 41.2000 -73.5167 285° West 243 280 3,500 -500 Descending New York TRACON
Sun 01:51:42 PM 41.2167 -73.6000 285° West 225 259 3,000 -250 Descending New York TRACON
Sun 01:52:42 PM 41.2500 -73.6667 304° West 234 269 3,000 -250 Level New York TRACON
Sun 01:53:42 PM 41.2333 -73.7500 255° West 234 269 2,500 -500 Descending New York TRACON
Sun 01:54:42 PM 41.2167 -73.8167 252° West 200 230 2,000 -250 Descending New York TRACON
Sun 01:55:42 PM 41.1667 -73.7833 153° Southeast 173 199 2,000 -100 Level New York TRACON
Sun 01:56:42 PM 41.1333 -73.7500 143° Southeast 163 188 1,800 -500 Descending New York TRACON
Sun 01:57:42 PM 41.1000 -73.7333 159° South 129 148 1,000 -800 Descending New York TRACON
Sun 01:59:00 PM 41.0667 -73.7000 148° Southeast  Level FlightAware Approximate
Sun 02:06:00 PM 41.0669 -73.7076 148° Southeast  Level Estimated
Sun 02:07:00 PM 41.0667 -73.7000 148° Southeast  Level FlightAware Approximate

Login

Don't have an account? Register now (free) for customized features, flight alerts, and more!